METAR Data
IDs: Format: Raw Decoded Include TAF

Data at: 1936 UTC 21 Sep 2021

KFSM 211922Z 33014G23KT 10SM BKN030 24/15 A3016 RMK AO2 T02440150 $
KFSM 211906Z 01014G20KT 10SM OVC029 23/15 A3016 RMK AO2 T02330150 $
KFSM 211853Z 35014G21KT 10SM BKN030 BKN045 23/15 A3016 RMK AO2 SLP208 T02330150 $
KFSM 211849Z 36015G25KT 10SM BKN030 OVC045 24/15 A3016 RMK AO2 $
KFSM 211820Z 01019G25KT 10SM FEW002 OVC026 23/15 A3016 RMK AO2 T02280150 $
KFSM 211753Z 36017G24KT 10SM OVC026 23/16 A3015 RMK AO2 SLP206 60000 T02330156 10256 20211 51018
KFSM 211729Z 34013KT 10SM BKN027 23/16 A3015 RMK AO2 T02330156
KFSM 211720Z 35015G24KT 10SM SCT029 24/16 A3014 RMK AO2 T02440161
KFSM 211709Z 33015G23KT 10SM BKN029 24/16 A3014 RMK AO2 T02390161
KFSM 211653Z 32012G20KT 10SM FEW028 26/17 A3013 RMK AO2 SLP198 T02560167
KFSM 211553Z 33010KT 10SM SCT055 BKN085 23/16 A3012 RMK AO2 SLP196 T02280161
KFSM 211453Z 32008KT 10SM OVC031 21/16 A3010 RMK AO2 SLP188 60000 T02110161 51030
KFSM 211445Z 31006KT 10SM OVC030 21/16 A3010 RMK AO2 T02110161
KFSM 211423Z 34009KT 10SM BKN029 OVC040 21/16 A3008 RMK AO2 T02110161
KFSM 211353Z 32008KT 10SM BKN033 OVC044 22/17 A3007 RMK AO2 LTG DSNT SE RAB25E38 SLP177 P0000 T02170172
KFSM 211340Z 35007KT 10SM SCT029 BKN037 OVC070 22/17 A3006 RMK AO2 LTG DSNT S RAB25E38 P0000 T02170172
KFSM 211253Z 02008KT 10SM OVC023 22/17 A3004 RMK AO2 RAB00E09 SLP168 P0000 T02170172
KFSM 211153Z 36012KT 10SM OVC015 22/18 A3001 RMK AO2 RAB31E44 SLP156 P0000 60006 70006 T02220183 10267 20222 53036
KFSM 211140Z 36011KT 10SM -RA BKN015 OVC022 23/19 A3000 RMK AO2 RAB31 P0000 T02280194
KFSM 211133Z 01014KT 10SM -RA BKN014 OVC022 23/19 A2999 RMK AO2 RAB31 P0000 T02280194
KFSM 211053Z 01005KT 10SM FEW017 BKN025 BKN036 23/21 A2997 RMK AO2 SLP142 T02330206
KFSM 211032Z 06013KT 10SM FEW012 BKN026 OVC050 24/21 A2996 RMK AO2 LTG DSNT NE T02390206
KFSM 211005Z AUTO 06006KT 10SM SCT008 SCT041 OVC050 24/22 A2995 RMK AO2 T02390222
KFSM 210953Z AUTO 06008KT 10SM BKN008 BKN041 OVC050 24/22 A2994 RMK AO2 SLP130 T02440222
KFSM 210945Z AUTO 06007KT 10SM BKN008 OVC041 24/22 A2994 RMK AO2 T02440222
KFSM 210936Z AUTO 05005KT 9SM SCT008 BKN041 24/22 A2993 RMK AO2 T02440222
KFSM 210853Z AUTO 09005KT 9SM CLR 25/23 A2990 RMK AO2 LTG DSNT E AND SE SLP118 60006 T02500228 50008
KFSM 210753Z AUTO 01005KT 10SM FEW100 SCT120 26/23 A2991 RMK AO2 LTG DSNT N AND NE RAB07E21 SLP120 P0006 T02610228
KFSM 210653Z AUTO 05004KT 10SM BKN100 OVC120 27/22 A2988 RMK AO2 SLP109 T02670222
KFSM 210553Z AUTO 07004KT 10SM OVC120 27/22 A2988 RMK AO2 SLP110 T02670222 10333 20261 403670211 53006
KFSM 210453Z AUTO 06003KT 10SM FEW110 27/22 A2986 RMK AO2 SLP106 T02720222
KFSM 210353Z AUTO 00000KT 10SM CLR 28/22 A2986 RMK AO2 SLP105 T02780217
KFSM 210253Z 00000KT 10SM CLR 29/22 A2986 RMK AO2 SLP105 T02890217 53021
KFSM 210153Z 17004KT 10SM CLR 30/22 A2983 RMK AO2 SLP096 T03000217
KFSM 210053Z 16005KT 10SM CLR 31/21 A2980 RMK AO2 SLP084 T03110206
KFSM 202353Z 18010G19KT 10SM FEW070 33/21 A2979 RMK AO2 SLP083 T03330206 10367 20333 53001
KFSM 202253Z 15012G17KT 10SM SCT075 35/19 A2978 RMK AO2 SLP078 T03500189
KFSM 202153Z 19007KT 10SM CLR 35/17 A2978 RMK AO2 SLP078 T03500172
KFSM 202053Z 23005KT 10SM CLR 37/17 A2979 RMK AO2 SLP082 T03670167 56022
KFSM 201953Z 14006KT 10SM CLR 35/18 A2980 RMK AO2 SLP086 T03500183